createdAt,value
2022-08-23T00:01:50.575Z,3.20
2022-08-23T00:04:23.451Z,3.28
2022-08-23T00:07:01.164Z,3.40
2022-08-23T00:09:29.079Z,3.35
2022-08-23T00:12:03.533Z,3.63
2022-08-23T00:14:32.071Z,3.35
2022-08-23T00:16:59.343Z,2.97
2022-08-23T00:19:26.608Z,2.97
2022-08-23T00:21:55.203Z,3.03
2022-08-23T00:24:23.883Z,3.50
2022-08-23T00:26:59.883Z,3.50
2022-08-23T00:29:31.651Z,3.13
2022-08-23T00:31:59.199Z,3.50
2022-08-23T00:34:25.910Z,3.05
2022-08-23T00:36:52.961Z,3.42
2022-08-23T00:39:19.486Z,3.50
2022-08-23T00:41:47.771Z,3.38
2022-08-23T00:44:39.525Z,3.47
2022-08-23T00:47:26.198Z,3.70
2022-08-23T00:50:03.987Z,3.92
2022-08-23T00:53:17.628Z,3.50
2022-08-23T00:55:46.626Z,3.33
2022-08-23T00:58:16.139Z,3.33
2022-08-23T01:00:42.595Z,2.85
2022-08-23T01:03:11.326Z,3.25
2022-08-23T01:06:01.578Z,2.95
2022-08-23T01:08:31.331Z,3.50
2022-08-23T01:11:08.829Z,3.58
2022-08-23T01:13:51.005Z,3.00
2022-08-23T01:16:25.788Z,3.58
2022-08-23T01:18:54.723Z,3.28
2022-08-23T01:21:36.583Z,3.13
2022-08-23T01:24:08.143Z,2.85
2022-08-23T01:26:35.256Z,2.83
2022-08-23T01:29:05.767Z,3.00
2022-08-23T01:31:33.311Z,3.08
2022-08-23T01:34:06.766Z,3.53
2022-08-23T01:36:35.719Z,3.45
2022-08-23T01:39:04.507Z,3.05
2022-08-23T01:41:31.980Z,3.20
2022-08-23T01:43:58.752Z,3.45
2022-08-23T01:46:27.428Z,3.53
2022-08-23T01:48:55.540Z,3.58
2022-08-23T01:51:23.885Z,3.03
2022-08-23T01:53:50.944Z,3.47
2022-08-23T01:56:27.571Z,3.63
2022-08-23T01:59:08.608Z,3.08
2022-08-23T02:01:42.739Z,3.47
2022-08-23T02:04:09.201Z,3.38
2022-08-23T02:06:35.898Z,3.20
2022-08-23T02:09:05.792Z,3.67
2022-08-23T02:11:45.024Z,3.10
2022-08-23T02:14:18.516Z,3.10
2022-08-23T02:17:04.469Z,3.00
2022-08-23T02:22:03.314Z,3.33
2022-08-23T02:24:31.182Z,3.75
2022-08-23T02:27:02.018Z,3.38
2022-08-23T02:29:29.733Z,3.10
2022-08-23T02:31:58.354Z,3.60
2022-08-23T02:34:36.732Z,3.70
2022-08-23T02:37:03.527Z,3.85
2022-08-23T02:39:30.485Z,3.28
2022-08-23T02:41:57.550Z,3.65
2022-08-23T02:44:24.683Z,3.92
2022-08-23T02:46:51.247Z,4.00
2022-08-23T02:49:18.512Z,3.47
2022-08-23T02:51:46.201Z,3.55
2022-08-23T02:54:13.288Z,3.42
2022-08-23T02:56:40.358Z,3.72
2022-08-23T02:59:08.214Z,3.85
2022-08-23T03:01:37.704Z,3.30
2022-08-23T03:04:24.901Z,3.08
2022-08-23T03:06:51.572Z,3.10
2022-08-23T03:09:18.605Z,4.55
2022-08-23T03:11:47.382Z,3.80
2022-08-23T03:14:14.200Z,3.15
2022-08-23T03:16:41.223Z,3.13
2022-08-23T03:19:08.607Z,3.78
2022-08-23T03:21:35.852Z,3.08
2022-08-23T03:24:06.911Z,3.55
2022-08-23T03:26:36.751Z,3.67
2022-08-23T03:29:03.762Z,3.35
2022-08-23T03:31:37.039Z,3.78
2022-08-23T03:34:09.369Z,3.30
2022-08-23T03:36:35.775Z,3.33
2022-08-23T03:39:04.703Z,3.20
2022-08-23T03:41:31.131Z,3.42
2022-08-23T03:43:57.726Z,3.40
2022-08-23T03:46:29.026Z,3.33
2022-08-23T03:49:02.243Z,3.35
2022-08-23T03:51:36.477Z,3.17
2022-08-23T03:54:03.549Z,3.45
2022-08-23T03:56:33.106Z,3.90
2022-08-23T03:59:04.300Z,3.80
2022-08-23T04:01:30.797Z,3.13
2022-08-23T04:04:01.265Z,3.08
2022-08-23T04:08:56.439Z,3.58
2022-08-23T04:11:23.496Z,3.00
2022-08-23T04:13:56.723Z,3.42
2022-08-23T04:16:23.273Z,3.50
2022-08-23T04:18:49.807Z,3.53
2022-08-23T04:21:22.384Z,3.30
2022-08-23T04:23:49.470Z,3.47
2022-08-23T04:26:15.985Z,3.50
2022-08-23T04:28:43.731Z,3.83
2022-08-23T04:31:10.469Z,3.50
2022-08-23T04:33:40.453Z,3.55
2022-08-23T04:36:08.786Z,4.15
2022-08-23T04:38:35.244Z,3.72
2022-08-23T04:41:23.749Z,3.42
2022-08-23T04:43:56.737Z,4.03
2022-08-23T04:46:24.407Z,3.70
2022-08-23T04:48:54.000Z,4.03
2022-08-23T04:51:22.125Z,3.22
2022-08-23T04:53:48.940Z,3.47
2022-08-23T04:56:34.708Z,3.90
2022-08-23T04:59:01.962Z,3.60
2022-08-23T05:01:28.879Z,3.42
2022-08-23T05:03:56.048Z,4.18
2022-08-23T05:06:25.119Z,3.70
2022-08-23T05:08:53.084Z,4.10
2022-08-23T05:11:20.470Z,3.72
2022-08-23T05:13:48.436Z,4.88
2022-08-23T05:16:15.496Z,4.13
2022-08-23T05:18:49.633Z,3.90
2022-08-23T05:21:19.527Z,4.43
2022-08-23T05:23:50.756Z,4.35
2022-08-23T05:26:21.304Z,4.75
2022-08-23T05:28:49.852Z,5.20
2022-08-23T05:31:25.940Z,4.97
2022-08-23T05:33:54.971Z,5.72
2022-08-23T05:36:55.818Z,5.85
2022-08-23T05:39:37.099Z,6.97
2022-08-23T05:42:10.660Z,6.47
2022-08-23T05:44:37.779Z,7.75
2022-08-23T05:47:10.685Z,7.40
2022-08-23T05:49:46.586Z,8.68
2022-08-23T05:52:14.158Z,8.90
2022-08-23T05:54:42.710Z,10.48
2022-08-23T05:57:41.478Z,10.00
2022-08-23T06:00:15.242Z,10.00
2022-08-23T06:02:51.166Z,7.47
2022-08-23T06:05:19.595Z,8.75
2022-08-23T06:07:47.637Z,9.60
2022-08-23T06:10:20.182Z,8.32
2022-08-23T06:12:50.772Z,9.63
2022-08-23T06:15:17.452Z,7.47
2022-08-23T06:17:44.044Z,8.32
2022-08-23T06:20:11.011Z,7.22
2022-08-23T06:22:55.260Z,7.57
2022-08-23T06:25:22.251Z,7.68
2022-08-23T06:28:10.763Z,8.45
2022-08-23T06:30:39.994Z,6.50
2022-08-23T06:33:16.196Z,7.78
2022-08-23T06:35:46.539Z,6.13
2022-08-23T06:38:29.011Z,7.05
2022-08-23T06:41:14.015Z,6.80
2022-08-23T06:44:20.021Z,6.13
2022-08-23T06:47:02.060Z,5.32
2022-08-23T06:49:28.891Z,6.80
2022-08-23T06:51:57.830Z,5.80
2022-08-23T06:54:44.242Z,6.10
2022-08-23T06:57:37.766Z,5.00
2022-08-23T07:00:22.791Z,4.70
2022-08-23T07:03:24.732Z,5.15
2022-08-23T07:06:09.930Z,5.82
2022-08-23T07:08:37.637Z,4.50
2022-08-23T07:11:04.376Z,3.95
2022-08-23T07:13:31.042Z,4.35
2022-08-23T07:15:59.327Z,4.50
2022-08-23T07:18:26.666Z,4.30
2022-08-23T07:20:58.782Z,4.43
2022-08-23T07:23:27.049Z,4.35
2022-08-23T07:25:54.396Z,3.88
2022-08-23T07:28:25.127Z,4.15
2022-08-23T07:30:51.825Z,3.83
2022-08-23T07:33:18.383Z,4.03
2022-08-23T07:36:16.430Z,3.78
2022-08-23T07:38:45.439Z,3.15
2022-08-23T07:41:12.998Z,3.20
2022-08-23T07:43:39.662Z,3.30
2022-08-23T07:46:08.846Z,3.53
2022-08-23T07:48:53.441Z,2.83
2022-08-23T07:51:25.093Z,3.72
2022-08-23T07:53:52.048Z,3.60
2022-08-23T07:56:21.339Z,3.08
2022-08-23T07:58:57.969Z,3.25
2022-08-23T08:01:53.679Z,3.10
2022-08-23T08:04:22.180Z,3.08
2022-08-23T08:07:10.330Z,3.50
2022-08-23T08:09:42.231Z,3.00
2022-08-23T08:12:08.859Z,3.42
2022-08-23T08:14:37.326Z,3.40
2022-08-23T08:17:04.402Z,3.03
2022-08-23T08:19:57.043Z,3.35
2022-08-23T08:22:46.739Z,3.47
2022-08-23T08:25:14.972Z,3.13
2022-08-23T08:27:42.755Z,3.50
2022-08-23T08:30:11.833Z,3.95
2022-08-23T08:32:46.709Z,3.60
2022-08-23T08:35:13.812Z,3.42
2022-08-23T08:37:40.542Z,2.80
2022-08-23T08:40:07.991Z,2.88
2022-08-23T08:43:06.272Z,3.13
2022-08-23T08:46:02.988Z,3.53
2022-08-23T08:48:39.369Z,3.70
2022-08-23T08:51:19.671Z,3.78
2022-08-23T08:53:49.424Z,3.72
2022-08-23T08:56:32.944Z,3.75
2022-08-23T08:59:24.015Z,3.03
2022-08-23T09:01:51.448Z,3.08
2022-08-23T09:04:25.691Z,3.40
2022-08-23T09:07:11.119Z,3.22
2022-08-23T09:10:25.190Z,2.67
2022-08-23T09:13:32.956Z,2.88
2022-08-23T09:16:41.249Z,3.92
2022-08-23T09:19:08.488Z,3.58
2022-08-23T09:21:47.223Z,3.25
2022-08-23T09:24:14.430Z,3.88
2022-08-23T09:26:54.270Z,3.95
2022-08-23T09:29:31.272Z,3.10
2022-08-23T09:32:03.578Z,3.70
2022-08-23T09:34:36.527Z,3.13
2022-08-23T09:37:17.602Z,3.22
2022-08-23T09:39:49.593Z,3.53
2022-08-23T09:42:32.733Z,3.53
2022-08-23T09:44:59.694Z,2.85
2022-08-23T09:47:38.463Z,3.33
2022-08-23T09:50:25.186Z,3.00
2022-08-23T09:52:59.020Z,3.15
2022-08-23T09:55:31.667Z,3.30
2022-08-23T09:58:00.531Z,2.95
2022-08-23T10:00:34.149Z,2.72
2022-08-23T10:03:27.662Z,3.40
2022-08-23T10:06:01.645Z,2.80
2022-08-23T10:08:40.916Z,2.90
2022-08-23T10:11:23.775Z,3.00
2022-08-23T10:13:52.235Z,3.72
2022-08-23T10:16:39.703Z,3.20
2022-08-23T10:19:56.127Z,4.20
2022-08-23T10:22:26.747Z,3.90
2022-08-23T10:25:30.337Z,3.67
2022-08-23T10:28:47.415Z,3.70
2022-08-23T10:31:41.852Z,3.50
2022-08-23T10:34:47.112Z,3.35
2022-08-23T10:37:36.426Z,3.70
2022-08-23T10:40:28.885Z,3.88
2022-08-23T10:43:07.683Z,3.85
2022-08-23T10:45:40.038Z,3.40
2022-08-23T10:48:28.502Z,3.65
2022-08-23T10:50:59.559Z,3.58
2022-08-23T10:53:37.494Z,3.00
2022-08-23T10:56:06.768Z,3.72
2022-08-23T10:58:56.013Z,3.47
2022-08-23T11:01:28.916Z,3.53
2022-08-23T11:04:04.155Z,3.60
2022-08-23T11:06:45.809Z,2.90
2022-08-23T11:09:19.661Z,3.85
2022-08-23T11:11:49.864Z,3.50
2022-08-23T11:14:36.835Z,3.33
2022-08-23T11:17:11.662Z,3.80
2022-08-23T11:19:52.395Z,3.47
2022-08-23T11:22:21.621Z,3.13
2022-08-23T11:24:54.746Z,3.45
2022-08-23T11:27:33.293Z,3.42
2022-08-23T11:30:34.828Z,3.60
2022-08-23T11:33:26.250Z,3.10
2022-08-23T11:36:16.613Z,3.25
2022-08-23T11:38:43.636Z,3.45
2022-08-23T11:41:18.874Z,3.60
2022-08-23T11:43:56.217Z,3.45
2022-08-23T11:46:22.745Z,3.10
2022-08-23T11:49:27.035Z,3.03
2022-08-23T11:52:02.233Z,3.17
2022-08-23T11:55:06.972Z,3.03
2022-08-23T11:57:55.366Z,3.40
2022-08-23T12:00:28.902Z,3.70
2022-08-23T12:03:04.545Z,3.55
2022-08-23T12:05:34.304Z,3.28
2022-08-23T12:08:04.232Z,3.75
2022-08-23T12:10:37.985Z,3.67
2022-08-23T12:13:19.637Z,3.75
2022-08-23T12:16:19.721Z,3.00
2022-08-23T12:18:49.286Z,3.55
2022-08-23T12:21:23.968Z,3.40
2022-08-23T12:23:54.143Z,3.67
2022-08-23T12:26:26.883Z,3.30
2022-08-23T12:29:39.899Z,3.47
2022-08-23T12:32:09.350Z,3.78
2022-08-23T12:35:03.396Z,2.95
2022-08-23T12:38:08.501Z,3.40
2022-08-23T12:40:42.801Z,3.53
2022-08-23T12:43:19.771Z,3.53
2022-08-23T12:45:57.687Z,3.63
2022-08-23T12:48:27.631Z,3.00
2022-08-23T12:51:02.090Z,3.07
2022-08-23T12:53:44.004Z,3.45
2022-08-23T12:56:17.233Z,3.67
2022-08-23T12:58:49.272Z,3.70
2022-08-23T13:01:23.145Z,3.53
2022-08-23T13:03:59.095Z,3.25
2022-08-23T13:06:31.250Z,3.90
2022-08-23T13:09:35.422Z,3.10
2022-08-23T13:12:03.500Z,3.28
2022-08-23T13:15:04.996Z,3.53
2022-08-23T13:17:38.610Z,3.00
2022-08-23T13:20:22.604Z,3.33
2022-08-23T13:23:02.477Z,3.03
2022-08-23T13:25:38.732Z,3.22
2022-08-23T13:28:21.372Z,3.15
2022-08-23T13:31:01.032Z,3.30
2022-08-23T13:33:27.470Z,3.20
2022-08-23T13:36:14.611Z,2.67
2022-08-23T13:38:43.253Z,3.00
2022-08-23T13:41:26.285Z,3.53
2022-08-23T13:43:53.185Z,3.70
2022-08-23T13:46:28.481Z,3.38
2022-08-23T13:49:00.276Z,3.63
2022-08-23T13:51:36.968Z,3.55
2022-08-23T13:54:15.535Z,2.88
2022-08-23T13:56:47.513Z,3.20
2022-08-23T13:59:22.812Z,2.78
2022-08-23T14:01:54.073Z,2.75
2022-08-23T14:04:20.634Z,2.88
2022-08-23T14:06:48.924Z,2.58
2022-08-23T14:09:16.065Z,3.17
2022-08-23T14:11:43.002Z,2.95
2022-08-23T14:14:11.926Z,3.13
2022-08-23T14:16:40.063Z,3.10
2022-08-23T14:19:55.352Z,3.65
2022-08-23T14:24:26.904Z,3.60
2022-08-23T14:26:54.718Z,2.45
2022-08-23T14:29:22.517Z,2.78
2022-08-23T14:31:50.846Z,2.60
2022-08-23T14:34:17.451Z,3.17
2022-08-23T14:37:21.704Z,3.20
2022-08-23T14:39:30.529Z,2.75
2022-08-23T14:41:58.075Z,3.15
2022-08-23T14:44:25.667Z,2.78
2022-08-23T14:46:54.424Z,2.70
2022-08-23T14:49:21.791Z,2.80
2022-08-23T14:51:50.242Z,2.75
2022-08-23T14:54:23.734Z,2.72
2022-08-23T14:56:50.783Z,2.40
2022-08-23T14:59:17.358Z,2.83
2022-08-23T15:01:44.860Z,2.78
2022-08-23T15:04:16.132Z,3.15
2022-08-23T15:07:00.452Z,2.50
2022-08-23T15:09:29.054Z,2.47
2022-08-23T15:14:41.814Z,2.20
2022-08-23T15:17:08.323Z,3.00
2022-08-23T15:19:35.149Z,2.63
2022-08-23T15:22:18.579Z,3.10
2022-08-23T15:24:48.911Z,2.60
2022-08-23T15:27:15.410Z,2.78
2022-08-23T15:29:41.802Z,2.63
2022-08-23T15:32:10.160Z,2.50
2022-08-23T15:34:40.153Z,2.83
2022-08-23T15:37:13.007Z,2.50
2022-08-23T15:39:39.479Z,2.38
2022-08-23T15:42:06.713Z,2.60
2022-08-23T15:44:33.134Z,2.67
2022-08-23T15:46:59.631Z,2.60
2022-08-23T15:49:27.899Z,2.63
2022-08-23T15:51:55.113Z,2.78
2022-08-23T15:54:21.493Z,2.40
2022-08-23T15:56:49.844Z,2.53
2022-08-23T15:59:19.852Z,2.75
2022-08-23T16:01:46.423Z,3.08
2022-08-23T16:04:13.124Z,2.10
2022-08-23T16:06:41.418Z,2.13
2022-08-23T16:09:16.398Z,2.35
2022-08-23T16:11:43.411Z,2.65
2022-08-23T16:14:10.324Z,2.85
2022-08-23T16:16:38.205Z,3.00
2022-08-23T16:19:05.768Z,2.63
2022-08-23T16:21:32.456Z,2.60
2022-08-23T16:23:59.642Z,2.83
2022-08-23T16:26:35.030Z,2.70
2022-08-23T16:29:04.004Z,3.10
2022-08-23T16:31:38.982Z,2.53
2022-08-23T16:34:11.709Z,2.78
2022-08-23T16:36:43.719Z,2.65
2022-08-23T16:39:11.574Z,3.85
2022-08-23T16:41:38.417Z,3.25
2022-08-23T16:44:05.769Z,3.05
2022-08-23T16:46:32.903Z,3.47
2022-08-23T16:48:59.356Z,3.15
2022-08-23T16:51:25.756Z,3.47
2022-08-23T16:53:55.653Z,3.05
2022-08-23T16:56:30.735Z,3.78
2022-08-23T16:58:57.189Z,3.03
2022-08-23T17:01:23.927Z,3.25
2022-08-23T17:03:50.539Z,3.47
2022-08-23T17:06:17.129Z,3.05
2022-08-23T17:08:43.597Z,3.35
2022-08-23T17:11:14.227Z,3.40
2022-08-23T17:16:07.670Z,3.25
2022-08-23T17:18:34.100Z,3.25
2022-08-23T17:21:00.526Z,3.30
2022-08-23T17:23:26.882Z,3.67
2022-08-23T17:25:53.272Z,3.38
2022-08-23T17:28:19.749Z,3.40
2022-08-23T17:30:46.175Z,3.53
2022-08-23T17:33:12.665Z,3.30
2022-08-23T17:35:39.495Z,4.00
2022-08-23T17:38:06.475Z,3.70
2022-08-23T17:40:36.565Z,4.47
2022-08-23T17:43:04.370Z,5.32
2022-08-23T17:45:39.504Z,3.72
2022-08-23T17:48:06.343Z,4.00
2022-08-23T17:50:32.832Z,3.70
2022-08-23T17:52:59.311Z,3.30
2022-08-23T17:55:25.823Z,3.88
2022-08-23T17:58:02.217Z,3.17
2022-08-23T18:00:35.511Z,3.85
2022-08-23T18:03:03.042Z,4.47
2022-08-23T18:05:33.164Z,3.22
2022-08-23T18:08:00.294Z,3.20
2022-08-23T18:10:27.334Z,3.70
2022-08-23T18:12:53.723Z,3.58
2022-08-23T18:15:20.493Z,3.42
2022-08-23T18:17:47.140Z,4.07
2022-08-23T18:20:13.847Z,3.67
2022-08-23T18:22:40.487Z,3.42
2022-08-23T18:25:08.820Z,4.00
2022-08-23T18:27:54.293Z,3.78
2022-08-23T18:30:21.124Z,3.47
2022-08-23T18:32:47.534Z,4.18
2022-08-23T18:35:14.019Z,3.72
2022-08-23T18:37:41.688Z,3.55
2022-08-23T18:40:10.041Z,4.22
2022-08-23T18:42:37.550Z,3.97
2022-08-23T18:45:05.207Z,3.63
2022-08-23T18:47:31.708Z,3.85
2022-08-23T18:49:58.126Z,4.00
2022-08-23T18:52:24.611Z,3.50
2022-08-23T18:54:50.987Z,3.83
2022-08-23T18:57:17.680Z,3.70
2022-08-23T18:59:44.382Z,4.00
2022-08-23T19:02:10.901Z,4.07
2022-08-23T19:04:37.514Z,3.70
2022-08-23T19:07:04.832Z,3.65
2022-08-23T19:09:31.244Z,3.30
2022-08-23T19:12:00.142Z,3.60
2022-08-23T19:14:28.227Z,3.60
2022-08-23T19:16:55.154Z,3.28
2022-08-23T19:19:22.918Z,3.50
2022-08-23T19:21:50.191Z,3.72
2022-08-23T19:24:17.035Z,3.50
2022-08-23T19:26:47.290Z,3.60
2022-08-23T19:29:14.761Z,3.85
2022-08-23T19:31:47.714Z,4.82
2022-08-23T19:34:16.655Z,3.83
2022-08-23T19:36:46.899Z,4.13
2022-08-23T19:39:16.319Z,3.38
2022-08-23T19:41:42.836Z,3.78
2022-08-23T19:44:09.954Z,4.72
2022-08-23T19:46:41.155Z,4.22
2022-08-23T19:49:10.461Z,4.00
2022-08-23T19:51:38.020Z,4.50
2022-08-23T19:54:10.983Z,4.03
2022-08-23T19:56:45.836Z,3.90
2022-08-23T19:59:16.156Z,3.50
2022-08-23T20:01:42.754Z,3.60
2022-08-23T20:04:09.244Z,3.58
2022-08-23T20:06:35.990Z,4.10
2022-08-23T20:09:02.558Z,3.95
2022-08-23T20:11:29.527Z,3.78
2022-08-23T20:13:56.560Z,4.07
2022-08-23T20:16:26.598Z,3.45
2022-08-23T20:18:54.235Z,3.87
2022-08-23T20:21:23.906Z,3.90
2022-08-23T20:24:01.447Z,4.10
2022-08-23T20:26:30.247Z,4.13
2022-08-23T20:28:59.753Z,4.13
2022-08-23T20:31:29.702Z,3.70
2022-08-23T20:33:56.771Z,3.70
2022-08-23T20:36:24.351Z,3.47
2022-08-23T20:38:50.841Z,4.43
2022-08-23T20:41:17.467Z,3.88
2022-08-23T20:43:47.622Z,4.15
2022-08-23T20:46:14.089Z,3.97
2022-08-23T20:48:40.488Z,3.85
2022-08-23T20:51:07.369Z,4.10
2022-08-23T20:53:34.986Z,4.28
2022-08-23T20:56:01.886Z,4.45
2022-08-23T20:58:28.487Z,3.88
2022-08-23T21:00:55.006Z,3.90
2022-08-23T21:03:21.646Z,3.67
2022-08-23T21:05:48.184Z,4.28
2022-08-23T21:08:16.136Z,4.10
2022-08-23T21:10:44.829Z,4.22
2022-08-23T21:13:11.459Z,3.63
2022-08-23T21:15:37.969Z,4.40
2022-08-23T21:18:04.810Z,4.30
2022-08-23T21:20:31.201Z,3.72
2022-08-23T21:22:57.649Z,4.25
2022-08-23T21:25:24.435Z,4.20
2022-08-23T21:27:50.930Z,3.90
2022-08-23T21:30:17.521Z,4.28
2022-08-23T21:32:43.958Z,3.97
2022-08-23T21:35:11.213Z,4.80
2022-08-23T21:37:38.090Z,4.57
2022-08-23T21:40:05.238Z,3.90
2022-08-23T21:42:31.738Z,4.07
2022-08-23T21:44:58.238Z,4.50
2022-08-23T21:47:24.668Z,3.95
2022-08-23T21:49:51.094Z,3.85
2022-08-23T21:52:17.494Z,4.20
2022-08-23T21:54:43.943Z,3.50
2022-08-23T21:57:10.911Z,4.13
2022-08-23T21:59:37.346Z,5.00
2022-08-23T22:02:04.133Z,4.53
2022-08-23T22:04:30.598Z,4.55
2022-08-23T22:06:57.235Z,4.70
2022-08-23T22:09:31.433Z,4.20
2022-08-23T22:14:28.732Z,4.32
2022-08-23T22:16:58.878Z,4.20
2022-08-23T22:19:25.564Z,4.28
2022-08-23T22:21:53.023Z,4.38
2022-08-23T22:24:25.601Z,4.97
2022-08-23T22:26:54.507Z,5.05
2022-08-23T22:29:21.217Z,3.78
2022-08-23T22:31:48.212Z,4.10
2022-08-23T22:34:14.937Z,5.03
2022-08-23T22:36:41.927Z,4.20
2022-08-23T22:39:08.480Z,3.95
2022-08-23T22:41:35.150Z,4.07
2022-08-23T22:44:02.656Z,4.35
2022-08-23T22:46:31.568Z,3.67
2022-08-23T22:48:58.378Z,4.20
2022-08-23T22:51:31.216Z,3.50
2022-08-23T22:54:00.718Z,3.90
2022-08-23T22:56:33.348Z,4.18
2022-08-23T22:59:00.024Z,4.10
2022-08-23T23:01:32.906Z,4.18
2022-08-23T23:04:02.001Z,4.22
2022-08-23T23:06:29.044Z,4.15
2022-08-23T23:08:56.171Z,3.92
2022-08-23T23:11:24.321Z,5.07
2022-08-23T23:13:50.835Z,4.53
2022-08-23T23:16:22.281Z,4.10
2022-08-23T23:19:07.940Z,4.60
2022-08-23T23:21:43.976Z,4.53
2022-08-23T23:24:12.926Z,4.20
2022-08-23T23:26:39.418Z,4.55
2022-08-23T23:29:06.164Z,4.10
2022-08-23T23:31:32.563Z,4.75
2022-08-23T23:33:59.047Z,4.60
2022-08-23T23:36:25.766Z,4.75
2022-08-23T23:38:52.371Z,3.85
2022-08-23T23:41:20.379Z,4.53
2022-08-23T23:43:47.748Z,4.05
2022-08-23T23:46:16.606Z,5.05
2022-08-23T23:48:46.475Z,4.68
2022-08-23T23:51:19.708Z,5.10
2022-08-23T23:53:46.609Z,4.63
2022-08-23T23:56:15.557Z,4.70
2022-08-23T23:58:42.067Z,4.10
